createdAt,value
2017-12-10T00:00:41.900Z,14.57
2017-12-10T00:03:10.114Z,15.10
2017-12-10T00:05:37.551Z,14.93
2017-12-10T00:08:05.026Z,15.60
2017-12-10T00:10:32.465Z,14.80
2017-12-10T00:12:59.918Z,16.27
2017-12-10T00:15:27.354Z,15.77
2017-12-10T00:17:54.811Z,15.77
2017-12-10T00:20:22.310Z,16.58
2017-12-10T00:22:49.748Z,17.02
2017-12-10T00:25:17.214Z,16.60
2017-12-10T00:27:44.674Z,17.15
2017-12-10T00:30:12.139Z,17.80
2017-12-10T00:32:39.670Z,17.20
2017-12-10T00:35:07.099Z,16.95
2017-12-10T00:37:35.298Z,17.08
2017-12-10T00:40:02.782Z,18.58
2017-12-10T00:42:30.233Z,17.62
2017-12-10T00:44:57.673Z,18.10
2017-12-10T00:47:25.254Z,18.27
2017-12-10T00:49:52.710Z,18.70
2017-12-10T00:52:20.139Z,19.33
2017-12-10T00:54:47.582Z,19.02
2017-12-10T00:57:15.026Z,19.55
2017-12-10T00:59:43.324Z,19.60
2017-12-10T01:02:10.762Z,19.05
2017-12-10T01:04:38.974Z,18.90
2017-12-10T01:07:06.445Z,18.23
2017-12-10T01:09:33.876Z,18.75
2017-12-10T01:12:01.322Z,19.87
2017-12-10T01:14:28.798Z,19.12
2017-12-10T01:16:56.230Z,20.35
2017-12-10T01:19:23.716Z,18.83
2017-12-10T01:21:51.161Z,18.80
2017-12-10T01:24:18.626Z,19.60
2017-12-10T01:26:46.070Z,18.73
2017-12-10T01:29:13.512Z,19.90
2017-12-10T01:31:40.995Z,20.02
2017-12-10T01:34:08.455Z,19.50
2017-12-10T01:36:35.910Z,19.02
2017-12-10T01:39:03.367Z,20.05
2017-12-10T01:41:30.815Z,20.00
2017-12-10T01:43:58.255Z,19.50
2017-12-10T01:46:25.699Z,19.40
2017-12-10T01:48:53.194Z,19.58
2017-12-10T01:51:20.725Z,20.50
2017-12-10T01:53:48.143Z,20.90
2017-12-10T01:56:16.486Z,20.77
2017-12-10T01:58:43.923Z,20.02
2017-12-10T02:01:11.378Z,20.45
2017-12-10T02:03:38.854Z,19.90
2017-12-10T02:06:06.293Z,20.55
2017-12-10T02:08:33.736Z,20.00
2017-12-10T02:11:01.166Z,19.83
2017-12-10T02:13:29.399Z,20.12
2017-12-10T02:15:56.846Z,19.60
2017-12-10T02:18:24.302Z,19.67
2017-12-10T02:20:51.763Z,19.33
2017-12-10T02:23:19.206Z,19.85
2017-12-10T02:25:46.655Z,19.60
2017-12-10T02:28:14.111Z,19.77
2017-12-10T02:30:41.553Z,19.48
2017-12-10T02:33:09.138Z,20.02
2017-12-10T02:35:36.574Z,21.35
2017-12-10T02:38:04.022Z,19.73
2017-12-10T02:40:31.520Z,19.75
2017-12-10T02:42:58.959Z,19.08
2017-12-10T02:45:26.419Z,19.55
2017-12-10T02:47:53.874Z,20.35
2017-12-10T02:50:21.331Z,20.25
2017-12-10T02:52:48.778Z,19.73
2017-12-10T02:55:16.223Z,20.70
2017-12-10T02:57:43.657Z,20.58
2017-12-10T03:00:11.112Z,19.40
2017-12-10T03:02:39.315Z,19.55
2017-12-10T03:05:06.766Z,19.55
2017-12-10T03:07:34.242Z,19.48
2017-12-10T03:10:01.682Z,20.48
2017-12-10T03:12:29.115Z,19.55
2017-12-10T03:14:56.623Z,18.83
2017-12-10T03:17:24.069Z,19.67
2017-12-10T03:19:51.649Z,19.20
2017-12-10T03:22:19.083Z,17.98
2017-12-10T03:24:46.638Z,18.67
2017-12-10T03:27:14.080Z,18.27
2017-12-10T03:29:41.515Z,18.85
2017-12-10T03:32:09.013Z,19.08
2017-12-10T03:34:36.446Z,18.25
2017-12-10T03:37:04.004Z,18.70
2017-12-10T03:39:31.426Z,18.70
2017-12-10T03:41:59.630Z,18.33
2017-12-10T03:44:27.071Z,18.70
2017-12-10T03:46:54.574Z,19.00
2017-12-10T03:49:22.031Z,18.42
2017-12-10T03:51:49.481Z,18.65
2017-12-10T03:54:16.915Z,19.37
2017-12-10T03:56:44.368Z,18.33
2017-12-10T03:59:11.802Z,18.02
2017-12-10T04:01:40.003Z,19.42
2017-12-10T04:04:07.430Z,17.90
2017-12-10T04:06:35.630Z,19.33
2017-12-10T04:09:03.050Z,18.55
2017-12-10T04:11:30.678Z,17.30
2017-12-10T04:13:58.106Z,17.33
2017-12-10T04:16:25.538Z,18.83
2017-12-10T04:18:52.981Z,18.23
2017-12-10T04:21:21.174Z,17.90
2017-12-10T04:23:48.606Z,18.00
2017-12-10T04:26:16.814Z,17.45
2017-12-10T04:28:44.242Z,17.67
2017-12-10T04:31:11.679Z,17.95
2017-12-10T04:33:39.114Z,17.55
2017-12-10T04:36:06.664Z,17.25
2017-12-10T04:38:34.110Z,17.70
2017-12-10T04:41:01.568Z,17.70
2017-12-10T04:43:29.008Z,17.90
2017-12-10T04:45:56.450Z,18.00
2017-12-10T04:48:23.894Z,17.65
2017-12-10T04:50:51.332Z,17.00
2017-12-10T04:53:19.566Z,18.02
2017-12-10T04:55:46.998Z,17.83
2017-12-10T04:58:14.442Z,17.45
2017-12-10T05:00:41.865Z,17.83
2017-12-10T05:03:09.391Z,17.55
2017-12-10T05:05:36.853Z,18.05
2017-12-10T05:08:04.286Z,18.25
2017-12-10T05:10:31.714Z,18.00
2017-12-10T05:12:59.933Z,19.02
2017-12-10T05:15:27.362Z,18.50
2017-12-10T05:17:54.850Z,17.90
2017-12-10T05:20:22.308Z,18.75
2017-12-10T05:22:49.751Z,18.23
2017-12-10T05:25:17.187Z,18.90
2017-12-10T05:27:44.681Z,18.37
2017-12-10T05:30:12.114Z,18.90
2017-12-10T05:32:39.552Z,19.08
2017-12-10T05:35:07.051Z,18.92
2017-12-10T05:37:34.479Z,18.70
2017-12-10T05:40:01.908Z,18.37
2017-12-10T05:42:30.110Z,19.52
2017-12-10T05:44:57.554Z,19.50
2017-12-10T05:47:24.973Z,18.75
2017-12-10T05:49:53.218Z,19.35
2017-12-10T05:52:20.682Z,18.67
2017-12-10T05:54:48.138Z,18.70
2017-12-10T05:57:15.573Z,19.17
2017-12-10T05:59:43.042Z,18.65
2017-12-10T06:02:10.491Z,18.98
2017-12-10T06:04:37.943Z,19.12
2017-12-10T06:07:05.388Z,19.52
2017-12-10T06:09:32.848Z,18.48
2017-12-10T06:12:00.274Z,18.30
2017-12-10T06:14:28.486Z,18.60
2017-12-10T06:16:55.950Z,18.30
2017-12-10T06:19:23.398Z,18.58
2017-12-10T06:21:50.881Z,18.85
2017-12-10T06:24:18.426Z,18.17
2017-12-10T06:26:45.878Z,18.08
2017-12-10T06:29:13.347Z,18.35
2017-12-10T06:31:40.781Z,18.40
2017-12-10T06:34:08.246Z,18.77
2017-12-10T06:36:35.806Z,18.20
2017-12-10T06:39:03.239Z,17.77
2017-12-10T06:41:30.714Z,18.75
2017-12-10T06:43:58.176Z,18.30
2017-12-10T06:46:25.731Z,18.40
2017-12-10T06:48:53.164Z,18.40
2017-12-10T06:51:20.596Z,18.02
2017-12-10T06:53:48.795Z,18.58
2017-12-10T06:56:16.265Z,19.12
2017-12-10T06:58:43.747Z,18.92
2017-12-10T07:01:11.175Z,18.15
2017-12-10T07:03:38.602Z,18.87
2017-12-10T07:06:06.093Z,18.60
2017-12-10T07:08:33.527Z,19.65
2017-12-10T07:11:00.958Z,19.65
2017-12-10T07:13:29.194Z,19.23
2017-12-10T07:15:56.651Z,18.70
2017-12-10T07:18:24.090Z,18.42
2017-12-10T07:20:51.518Z,17.20
2017-12-10T07:23:18.954Z,18.20
2017-12-10T07:25:47.154Z,17.95
2017-12-10T07:28:14.638Z,18.12
2017-12-10T07:30:42.066Z,19.00
2017-12-10T07:33:09.587Z,18.08
2017-12-10T07:35:37.835Z,18.27
2017-12-10T07:38:05.275Z,18.48
2017-12-10T07:40:32.749Z,18.23
2017-12-10T07:43:00.183Z,18.08
2017-12-10T07:45:28.041Z,19.17
2017-12-10T07:47:55.470Z,17.62
2017-12-10T07:50:23.074Z,19.58
2017-12-10T07:52:50.506Z,17.40
2017-12-10T07:55:17.935Z,17.58
2017-12-10T07:57:46.134Z,17.05
2017-12-10T08:00:14.087Z,17.75
2017-12-10T08:02:41.591Z,17.92
2017-12-10T08:05:09.042Z,18.33
2017-12-10T08:07:36.491Z,18.17
2017-12-10T08:10:03.958Z,18.42
2017-12-10T08:12:31.409Z,18.35
2017-12-10T08:14:58.874Z,17.55
2017-12-10T08:17:26.305Z,18.77
2017-12-10T08:19:53.758Z,19.23
2017-12-10T08:22:21.199Z,18.87
2017-12-10T08:24:48.646Z,18.00
2017-12-10T08:27:16.150Z,17.87
2017-12-10T08:29:43.579Z,18.50
2017-12-10T08:32:11.039Z,18.67
2017-12-10T08:34:38.458Z,17.45
2017-12-10T08:37:06.698Z,17.10
2017-12-10T08:39:34.147Z,17.58
2017-12-10T08:42:01.597Z,16.70
2017-12-10T08:44:29.062Z,16.75
2017-12-10T08:46:56.518Z,17.55
2017-12-10T08:49:23.974Z,16.95
2017-12-10T08:51:51.433Z,16.70
2017-12-10T08:54:18.879Z,15.80
2017-12-10T08:56:46.345Z,15.57
2017-12-10T08:59:13.801Z,15.48
2017-12-10T09:01:41.237Z,15.80
2017-12-10T09:04:08.714Z,15.70
2017-12-10T09:06:36.171Z,13.90
2017-12-10T09:09:03.612Z,14.20
2017-12-10T09:11:31.058Z,14.30
2017-12-10T09:13:58.553Z,13.32
2017-12-10T09:16:25.990Z,13.02
2017-12-10T09:18:53.430Z,13.45
2017-12-10T09:21:20.913Z,13.15
2017-12-10T09:23:48.374Z,12.77
2017-12-10T09:26:15.825Z,12.45
2017-12-10T09:28:43.371Z,13.57
2017-12-10T09:31:10.841Z,11.40
2017-12-10T09:33:38.396Z,11.40
2017-12-10T09:36:05.946Z,11.15
2017-12-10T09:38:33.382Z,10.77
2017-12-10T09:41:00.831Z,10.20
2017-12-10T09:43:28.259Z,10.68
2017-12-10T09:45:55.695Z,10.95
2017-12-10T09:48:23.195Z,10.10
2017-12-10T09:50:50.570Z,9.30
2017-12-10T09:53:17.999Z,10.00
2017-12-10T09:55:45.438Z,11.07
2017-12-10T09:58:13.634Z,9.70
2017-12-10T10:00:41.239Z,9.25
2017-12-10T10:03:08.686Z,8.52
2017-12-10T10:05:36.126Z,9.90
2017-12-10T10:08:03.706Z,8.20
2017-12-10T10:10:31.158Z,8.02
2017-12-10T10:12:58.594Z,8.73
2017-12-10T10:15:26.043Z,8.35
2017-12-10T10:17:54.434Z,8.57
2017-12-10T10:20:22.019Z,9.70
2017-12-10T10:22:50.242Z,8.13
2017-12-10T10:25:17.674Z,8.23
2017-12-10T10:27:45.873Z,7.85
2017-12-10T10:30:13.302Z,8.32
2017-12-10T10:32:41.535Z,7.50
2017-12-10T10:35:08.995Z,6.80
2017-12-10T10:37:36.443Z,7.70
2017-12-10T10:40:03.871Z,7.78
2017-12-10T10:42:31.302Z,7.70
2017-12-10T10:44:59.511Z,7.68
2017-12-10T10:47:26.950Z,7.53
2017-12-10T10:49:54.442Z,7.10
2017-12-10T10:52:21.915Z,6.55
2017-12-10T10:54:49.466Z,6.78
2017-12-10T10:57:16.908Z,6.90
2017-12-10T10:59:44.338Z,6.43
2017-12-10T11:02:11.830Z,6.90
2017-12-10T11:04:39.263Z,6.35
2017-12-10T11:07:06.699Z,6.60
2017-12-10T11:09:34.146Z,7.20
2017-12-10T11:12:02.370Z,6.80
2017-12-10T11:14:29.826Z,6.55
2017-12-10T11:16:57.260Z,6.20
2017-12-10T11:19:24.690Z,6.95
2017-12-10T11:21:52.906Z,6.20
2017-12-10T11:24:20.334Z,6.97
2017-12-10T11:26:47.758Z,6.10
2017-12-10T11:29:15.954Z,6.32
2017-12-10T11:31:43.407Z,7.03
2017-12-10T11:34:11.630Z,6.40
2017-12-10T11:36:39.058Z,6.50
2017-12-10T11:39:06.535Z,7.90
2017-12-10T11:41:33.995Z,6.90
2017-12-10T11:44:01.431Z,7.10
2017-12-10T11:46:28.908Z,7.87
2017-12-10T11:48:57.094Z,7.40
2017-12-10T11:51:24.519Z,7.15
2017-12-10T11:53:51.995Z,7.00
2017-12-10T11:56:19.434Z,7.25
2017-12-10T11:58:46.862Z,6.12
2017-12-10T12:01:14.299Z,6.70
2017-12-10T12:03:41.922Z,6.60
2017-12-10T12:06:09.358Z,6.80
2017-12-10T12:08:36.790Z,7.20
2017-12-10T12:11:04.226Z,7.00
2017-12-10T12:13:32.426Z,7.20
2017-12-10T12:15:59.920Z,7.45
2017-12-10T12:18:27.376Z,6.72
2017-12-10T12:20:54.959Z,6.40
2017-12-10T12:23:22.402Z,6.30
2017-12-10T12:25:49.806Z,6.12
2017-12-10T12:28:17.311Z,6.47
2017-12-10T12:30:44.754Z,6.40
2017-12-10T12:33:12.220Z,6.20
2017-12-10T12:35:39.679Z,5.78
2017-12-10T12:38:07.139Z,7.62
2017-12-10T12:40:34.599Z,6.50
2017-12-10T12:43:02.854Z,6.97
2017-12-10T12:45:30.323Z,6.87
2017-12-10T12:47:57.768Z,6.40
2017-12-10T12:50:25.191Z,6.37
2017-12-10T12:52:52.693Z,6.40
2017-12-10T12:55:20.225Z,6.10
2017-12-10T12:57:47.634Z,6.15
2017-12-10T13:00:15.823Z,6.62
2017-12-10T13:02:43.262Z,6.97
2017-12-10T13:05:11.512Z,7.00
2017-12-10T13:07:38.943Z,7.93
2017-12-10T13:10:06.359Z,7.20
2017-12-10T13:12:34.559Z,7.00
2017-12-10T13:15:02.042Z,6.80
2017-12-10T13:17:29.471Z,7.03
2017-12-10T13:19:56.958Z,8.68
2017-12-10T13:22:24.530Z,7.85
2017-12-10T13:24:51.962Z,8.00
2017-12-10T13:27:19.430Z,8.00
2017-12-10T13:29:46.854Z,7.65
2017-12-10T13:32:14.360Z,7.22
2017-12-10T13:34:41.795Z,9.38
2017-12-10T13:37:09.245Z,7.70
2017-12-10T13:39:36.682Z,7.43
2017-12-10T13:42:04.115Z,7.70
2017-12-10T13:44:32.315Z,7.30
2017-12-10T13:46:59.754Z,7.95
2017-12-10T13:49:27.268Z,7.57
2017-12-10T13:51:54.705Z,8.77
2017-12-10T13:54:22.146Z,8.90
2017-12-10T13:56:49.722Z,7.53
2017-12-10T13:59:17.161Z,7.28
2017-12-10T14:01:44.630Z,7.60
2017-12-10T14:04:12.059Z,8.60
2017-12-10T14:06:39.546Z,7.50
2017-12-10T14:09:06.979Z,7.50
2017-12-10T14:11:34.406Z,6.65
2017-12-10T14:14:01.833Z,7.65
2017-12-10T14:16:29.258Z,6.90
2017-12-10T14:18:56.702Z,6.62
2017-12-10T14:21:24.183Z,6.85
2017-12-10T14:23:51.615Z,7.80
2017-12-10T14:26:19.044Z,7.32
2017-12-10T14:28:47.351Z,7.87
2017-12-10T14:31:14.827Z,7.40
2017-12-10T14:33:42.271Z,7.93
2017-12-10T14:36:09.694Z,8.32
2017-12-10T14:38:37.190Z,8.55
2017-12-10T14:41:04.622Z,7.50
2017-12-10T14:43:32.087Z,7.15
2017-12-10T14:45:59.741Z,7.12
2017-12-10T14:48:27.185Z,7.55
2017-12-10T14:50:54.763Z,6.90
2017-12-10T14:53:22.191Z,8.03
2017-12-10T14:55:49.698Z,7.57
2017-12-10T14:58:17.161Z,7.45
2017-12-10T15:00:44.585Z,7.47
2017-12-10T15:03:12.015Z,8.15
2017-12-10T15:05:39.467Z,8.57
2017-12-10T15:08:07.651Z,7.90
2017-12-10T15:10:35.842Z,7.03
2017-12-10T15:13:03.267Z,7.80
2017-12-10T15:15:31.465Z,8.30
2017-12-10T15:17:58.951Z,8.10
2017-12-10T15:20:26.388Z,7.78
2017-12-10T15:22:53.864Z,7.50
2017-12-10T15:25:21.319Z,7.32
2017-12-10T15:27:48.787Z,7.82
2017-12-10T15:30:16.198Z,7.60
2017-12-10T15:32:43.691Z,7.60
2017-12-10T15:35:11.150Z,8.10
2017-12-10T15:37:38.570Z,7.35
2017-12-10T15:40:06.457Z,7.10
2017-12-10T15:42:33.893Z,6.97
2017-12-10T15:45:01.311Z,7.60
2017-12-10T15:47:28.842Z,7.22
2017-12-10T15:49:56.288Z,7.18
2017-12-10T15:52:23.866Z,7.80
2017-12-10T15:54:51.329Z,8.57
2017-12-10T15:57:19.519Z,7.37
2017-12-10T15:59:47.710Z,7.30
2017-12-10T16:02:15.214Z,7.93
2017-12-10T16:04:42.643Z,7.80
2017-12-10T16:07:10.129Z,7.80
2017-12-10T16:09:37.587Z,7.55
2017-12-10T16:12:05.010Z,7.57
2017-12-10T16:14:32.434Z,7.30
2017-12-10T16:17:00.665Z,8.02
2017-12-10T16:19:28.103Z,7.47
2017-12-10T16:21:55.578Z,7.75
2017-12-10T16:24:23.045Z,8.45
2017-12-10T16:26:50.483Z,7.97
2017-12-10T16:29:17.903Z,6.83
2017-12-10T16:31:45.404Z,7.73
2017-12-10T16:34:12.881Z,6.82
2017-12-10T16:36:40.310Z,8.20
2017-12-10T16:39:07.795Z,7.70
2017-12-10T16:41:36.767Z,8.10
2017-12-10T16:44:04.214Z,7.00
2017-12-10T16:46:31.672Z,6.72
2017-12-10T16:48:59.098Z,8.10
2017-12-10T16:51:26.538Z,7.20
2017-12-10T16:53:54.758Z,8.10
2017-12-10T16:56:22.576Z,7.90
2017-12-10T16:58:50.786Z,7.62
2017-12-10T17:01:18.263Z,7.50
2017-12-10T17:03:46.029Z,7.32
2017-12-10T17:06:14.252Z,8.18
2017-12-10T17:08:41.700Z,7.45
2017-12-10T17:11:09.903Z,7.97
2017-12-10T17:13:37.374Z,7.28
2017-12-10T17:16:05.742Z,8.10
2017-12-10T17:18:33.188Z,8.18
2017-12-10T17:21:00.651Z,7.00
2017-12-10T17:23:28.084Z,7.80
2017-12-10T17:25:56.266Z,8.30
2017-12-10T17:28:23.707Z,7.60
2017-12-10T17:30:51.176Z,7.55
2017-12-10T17:33:19.368Z,8.85
2017-12-10T17:35:46.802Z,8.23
2017-12-10T17:38:15.028Z,8.48
2017-12-10T17:40:42.478Z,8.73
2017-12-10T17:43:09.936Z,8.60
2017-12-10T17:45:37.351Z,8.70
2017-12-10T17:48:04.819Z,9.05
2017-12-10T17:50:32.311Z,10.63
2017-12-10T17:52:59.759Z,9.95
2017-12-10T17:55:27.193Z,9.88
2017-12-10T17:57:54.781Z,9.80
2017-12-10T18:00:22.334Z,9.60
2017-12-10T18:02:49.778Z,10.20
2017-12-10T18:05:17.218Z,10.77
2017-12-10T18:07:44.701Z,9.95
2017-12-10T18:10:12.158Z,10.10
2017-12-10T18:12:39.598Z,10.57
2017-12-10T18:15:07.039Z,10.40
2017-12-10T18:17:34.514Z,9.02
2017-12-10T18:20:01.955Z,9.90
2017-12-10T18:22:29.386Z,9.60
2017-12-10T18:24:57.587Z,9.75
2017-12-10T18:27:25.068Z,9.20
2017-12-10T18:29:52.522Z,9.43
2017-12-10T18:32:19.998Z,8.20
2017-12-10T18:34:47.547Z,9.17
2017-12-10T18:37:14.976Z,8.38
2017-12-10T18:39:42.459Z,7.93
2017-12-10T18:42:09.902Z,9.02
2017-12-10T18:44:37.354Z,7.70
2017-12-10T18:47:04.790Z,8.68
2017-12-10T18:49:32.252Z,8.52
2017-12-10T18:51:59.661Z,8.75
2017-12-10T18:54:27.118Z,8.80
2017-12-10T18:56:54.638Z,8.27
2017-12-10T18:59:22.096Z,8.65
2017-12-10T19:01:49.554Z,7.53
2017-12-10T19:04:17.013Z,7.70
2017-12-10T19:06:44.487Z,7.43
2017-12-10T19:09:11.935Z,8.63
2017-12-10T19:11:39.391Z,9.00
2017-12-10T19:14:06.822Z,7.93
2017-12-10T19:16:34.263Z,8.85
2017-12-10T19:19:01.706Z,7.90
2017-12-10T19:21:29.894Z,7.72
2017-12-10T19:23:57.388Z,8.05
2017-12-10T19:26:24.832Z,8.77
2017-12-10T19:28:52.258Z,8.10
2017-12-10T19:31:19.694Z,8.30
2017-12-10T19:33:48.050Z,7.65
2017-12-10T19:36:15.458Z,7.68
2017-12-10T19:38:42.879Z,7.70
2017-12-10T19:41:11.079Z,8.15
2017-12-10T19:43:38.559Z,8.30
2017-12-10T19:46:06.022Z,7.47
2017-12-10T19:48:33.462Z,8.20
2017-12-10T19:51:00.890Z,8.60
2017-12-10T19:53:28.314Z,7.78
2017-12-10T19:55:55.742Z,7.70
2017-12-10T19:58:23.185Z,7.80
2017-12-10T20:00:50.602Z,8.23
2017-12-10T20:03:18.798Z,8.95
2017-12-10T20:05:46.225Z,7.60
2017-12-10T20:08:14.452Z,7.70
2017-12-10T20:10:41.915Z,7.70
2017-12-10T20:13:09.380Z,7.40
2017-12-10T20:15:36.964Z,8.50
2017-12-10T20:18:04.516Z,7.68
2017-12-10T20:20:31.963Z,8.20
2017-12-10T20:22:59.464Z,7.68
2017-12-10T20:25:26.924Z,7.43
2017-12-10T20:27:54.372Z,8.30
2017-12-10T20:30:21.790Z,7.35
2017-12-10T20:32:49.269Z,8.07
2017-12-10T20:35:16.687Z,8.63
2017-12-10T20:37:44.166Z,8.57
2017-12-10T20:40:11.634Z,8.57
2017-12-10T20:42:39.090Z,9.73
2017-12-10T20:45:06.642Z,10.30
2017-12-10T20:47:34.098Z,10.50
2017-12-10T20:50:01.532Z,9.30
2017-12-10T20:52:29.006Z,9.40
2017-12-10T20:54:56.463Z,9.43
2017-12-10T20:57:23.898Z,10.10
2017-12-10T20:59:51.326Z,9.60
2017-12-10T21:02:19.555Z,9.60
2017-12-10T21:04:47.006Z,9.30
2017-12-10T21:07:14.566Z,9.90
2017-12-10T21:09:42.061Z,9.45
2017-12-10T21:12:09.594Z,9.07
2017-12-10T21:14:37.034Z,8.90
2017-12-10T21:17:04.468Z,9.07
2017-12-10T21:19:31.900Z,9.20
2017-12-10T21:22:00.098Z,8.85
2017-12-10T21:24:27.550Z,9.95
2017-12-10T21:26:55.050Z,9.93
2017-12-10T21:29:22.595Z,9.70
2017-12-10T21:31:50.031Z,9.48
2017-12-10T21:34:17.510Z,8.60
2017-12-10T21:36:44.942Z,8.55
2017-12-10T21:39:12.419Z,8.87
2017-12-10T21:41:39.855Z,8.60
2017-12-10T21:44:07.343Z,8.50
2017-12-10T21:46:34.775Z,9.20
2017-12-10T21:49:02.224Z,8.93
2017-12-10T21:51:29.707Z,9.43
2017-12-10T21:53:57.155Z,9.85
2017-12-10T21:56:24.649Z,9.30
2017-12-10T21:58:52.172Z,9.77
2017-12-10T22:01:19.624Z,9.00
2017-12-10T22:03:47.055Z,9.00
2017-12-10T22:06:14.500Z,9.07
2017-12-10T22:08:42.775Z,10.40
2017-12-10T22:11:11.069Z,10.55
2017-12-10T22:13:39.325Z,9.63
2017-12-10T22:16:07.573Z,9.63
2017-12-10T22:18:35.033Z,9.60
2017-12-10T22:21:02.528Z,9.70
2017-12-10T22:23:30.780Z,9.57
2017-12-10T22:25:58.301Z,10.40
2017-12-10T22:28:25.739Z,9.90
2017-12-10T22:30:53.214Z,8.73
2017-12-10T22:33:20.658Z,10.15
2017-12-10T22:35:48.092Z,9.20
2017-12-10T22:38:15.530Z,9.68
2017-12-10T22:40:43.768Z,9.55
2017-12-10T22:43:11.215Z,9.40
2017-12-10T22:45:38.797Z,9.43
2017-12-10T22:48:06.238Z,9.60
2017-12-10T22:50:33.667Z,10.18
2017-12-10T22:53:01.115Z,9.07
2017-12-10T22:55:28.536Z,8.98
2017-12-10T22:57:55.970Z,9.10
2017-12-10T23:00:23.418Z,8.43
2017-12-10T23:02:50.952Z,8.80
2017-12-10T23:05:25.223Z,8.70
2017-12-10T23:07:52.747Z,8.53
2017-12-10T23:10:20.197Z,8.75
2017-12-10T23:12:47.647Z,8.10
2017-12-10T23:15:15.987Z,8.20
2017-12-10T23:17:43.507Z,8.50
2017-12-10T23:20:10.951Z,8.35
2017-12-10T23:22:38.384Z,8.13
2017-12-10T23:25:05.818Z,8.30
2017-12-10T23:27:33.282Z,8.75
2017-12-10T23:30:00.712Z,8.40
2017-12-10T23:32:28.225Z,8.30
2017-12-10T23:34:55.659Z,8.30
2017-12-10T23:37:23.143Z,8.30
2017-12-10T23:39:50.570Z,8.40
2017-12-10T23:42:18.006Z,8.40
2017-12-10T23:44:45.526Z,8.20
2017-12-10T23:47:12.950Z,8.40
2017-12-10T23:49:40.378Z,8.90
2017-12-10T23:52:07.881Z,8.20
2017-12-10T23:54:35.325Z,8.00
2017-12-10T23:57:02.750Z,8.90
2017-12-10T23:59:30.241Z,8.60
